Time;durP1;ratioP1;P1;durP2;ratioP2;P2;SDS_P1;SDS_P2;PMS_P1;PMS_P2;Temp;Humidity;BMP_temperature;BMP_pressure;BME280_temperature;BME280_humidity;BME280_pressure;Samples;Min_cycle;Max_cycle;Signal;HPM_P1;HPM_P2
2022/04/02 00:00:46;;;;;;;14.57;12.40;;;1.10;97.40;;;;;;4983296;28;20268;-76
2022/04/02 00:03:14;;;;;;;15.43;13.40;;;1.10;97.50;;;;;;4991684;28;20285;-76
2022/04/02 00:05:41;;;;;;;14.88;12.52;;;1.10;97.50;;;;;;4988208;28;20233;-76
2022/04/02 00:08:08;;;;;;;16.92;13.25;;;1.10;97.50;;;;;;4985666;28;20256;-76
2022/04/02 00:10:35;;;;;;;14.05;11.55;;;1.10;97.70;;;;;;4989472;28;20224;-76
2022/04/02 00:13:02;;;;;;;15.52;12.25;;;1.10;97.80;;;;;;4987595;28;20316;-77
2022/04/02 00:15:29;;;;;;;13.95;11.35;;;1.20;98.40;;;;;;4986043;28;20213;-75
2022/04/02 00:17:55;;;;;;;16.52;14.00;;;1.20;98.40;;;;;;4978976;28;20211;-75
2022/04/02 00:20:24;;;;;;;15.13;12.38;;;1.10;98.20;;;;;;4978995;28;20209;-76
2022/04/02 00:25:32;;;;;;;17.73;13.02;;;1.20;98.70;;;;;;4981744;28;20275;-75
2022/04/02 00:27:59;;;;;;;17.23;14.15;;;1.10;98.40;;;;;;4993299;28;20741;-75
2022/04/02 00:30:26;;;;;;;20.40;13.65;;;1.10;98.70;;;;;;4991838;28;20221;-77
2022/04/02 00:32:53;;;;;;;18.17;13.80;;;1.10;98.80;;;;;;4993619;28;20216;-76
2022/04/02 00:35:20;;;;;;;17.15;13.73;;;1.20;99.00;;;;;;4981007;28;20296;-77
2022/04/02 00:37:48;;;;;;;15.20;12.52;;;1.20;99.00;;;;;;4978860;28;20300;-75
2022/04/02 00:40:15;;;;;;;17.25;14.27;;;1.20;98.90;;;;;;4978614;28;20249;-76
2022/04/02 00:42:44;;;;;;;17.65;14.25;;;1.10;99.00;;;;;;4978103;28;20208;-76
2022/04/02 00:45:11;;;;;;;20.40;14.57;;;1.10;99.60;;;;;;4977152;28;20324;-76
2022/04/02 00:47:38;;;;;;;18.08;13.77;;;1.20;99.90;;;;;;4976548;28;20217;-75
2022/04/02 00:50:07;;;;;;;18.63;14.50;;;1.20;99.90;;;;;;4976363;28;20242;-76
2022/04/02 00:52:34;;;;;;;16.63;14.35;;;1.20;99.80;;;;;;4976907;28;20291;-77
2022/04/02 00:55:02;;;;;;;17.20;13.10;;;1.10;99.90;;;;;;4976360;28;20236;-77
2022/04/02 00:57:29;;;;;;;15.57;13.38;;;1.10;99.90;;;;;;4977477;28;20694;-76
2022/04/02 00:59:56;;;;;;;18.05;15.07;;;1.10;99.90;;;;;;4977401;28;20205;-77
2022/04/02 01:02:23;;;;;;;16.45;13.43;;;1.10;99.90;;;;;;4977138;28;20205;-75
2022/04/02 01:04:50;;;;;;;20.25;14.25;;;1.10;99.90;;;;;;4977492;28;20550;-75
2022/04/02 01:07:18;;;;;;;16.25;13.43;;;1.10;99.90;;;;;;4977371;28;20738;-75
2022/04/02 01:09:44;;;;;;;15.73;12.75;;;1.20;99.90;;;;;;4976944;28;20236;-76
2022/04/02 01:12:13;;;;;;;16.27;14.23;;;1.10;99.90;;;;;;4977425;28;20209;-75
2022/04/02 01:14:40;;;;;;;15.90;13.73;;;1.10;99.90;;;;;;4978724;28;20236;-75
2022/04/02 01:17:06;;;;;;;19.92;14.02;;;1.10;99.90;;;;;;4978066;28;20237;-75
2022/04/02 01:19:33;;;;;;;19.90;13.73;;;1.10;99.90;;;;;;4976610;28;20240;-76
2022/04/02 01:22:02;;;;;;;17.23;13.38;;;1.10;99.90;;;;;;4978724;28;20766;-75
2022/04/02 01:24:29;;;;;;;18.80;14.63;;;1.10;99.90;;;;;;4979912;28;20233;-76
2022/04/02 01:26:56;;;;;;;16.50;13.05;;;1.10;99.90;;;;;;4984200;28;20209;-76
2022/04/02 01:29:23;;;;;;;16.95;13.40;;;1.00;99.90;;;;;;4991866;28;20260;-75
2022/04/02 01:31:50;;;;;;;17.52;13.95;;;1.10;99.90;;;;;;4997322;28;20240;-74
2022/04/02 01:34:19;;;;;;;17.80;14.15;;;1.10;99.90;;;;;;4988123;28;20221;-75
2022/04/02 01:36:46;;;;;;;18.23;14.68;;;1.10;99.90;;;;;;4978950;28;20205;-76
2022/04/02 01:39:14;;;;;;;17.77;14.60;;;1.10;99.90;;;;;;4977078;28;20674;-76
2022/04/02 01:41:41;;;;;;;14.95;12.00;;;1.10;99.90;;;;;;4976653;28;20205;-75
2022/04/02 01:44:08;;;;;;;16.48;12.88;;;1.10;99.90;;;;;;4976880;28;20320;-75
2022/04/02 01:46:35;;;;;;;16.30;12.88;;;1.10;99.90;;;;;;4976480;28;20205;-75
2022/04/02 01:49:02;;;;;;;17.63;13.32;;;1.10;99.90;;;;;;4976006;28;20251;-77
2022/04/02 01:51:29;;;;;;;19.17;13.60;;;1.00;99.90;;;;;;4976742;28;20240;-75
2022/04/02 01:53:56;;;;;;;16.20;13.65;;;1.00;99.90;;;;;;4976965;28;20320;-76
2022/04/02 01:56:24;;;;;;;15.50;12.90;;;1.10;99.90;;;;;;4976259;28;20217;-75
2022/04/02 01:58:51;;;;;;;18.73;14.55;;;1.10;99.90;;;;;;4975020;28;20201;-75
2022/04/02 02:01:18;;;;;;;15.25;13.02;;;1.10;99.90;;;;;;4977929;28;20210;-76
2022/04/02 02:03:45;;;;;;;16.17;13.15;;;1.10;99.90;;;;;;4977437;28;20257;-75
2022/04/02 02:06:12;;;;;;;15.82;12.60;;;1.10;99.90;;;;;;4977098;28;20236;-75
2022/04/02 02:08:39;;;;;;;16.60;12.27;;;1.10;99.90;;;;;;4979654;28;20229;-76
2022/04/02 02:11:06;;;;;;;14.25;11.45;;;1.10;99.90;;;;;;4986061;28;20566;-74
2022/04/02 02:13:34;;;;;;;16.08;12.30;;;1.10;99.90;;;;;;4987279;28;20595;-75
2022/04/02 02:16:01;;;;;;;15.48;12.45;;;1.10;99.90;;;;;;4976673;28;20278;-75
2022/04/02 02:18:28;;;;;;;15.48;11.70;;;1.00;99.90;;;;;;4990888;28;20189;-75
2022/04/02 02:20:55;;;;;;;16.40;12.27;;;1.10;99.90;;;;;;4991804;28;20276;-75
2022/04/02 02:23:21;;;;;;;13.20;11.80;;;1.10;99.90;;;;;;4992277;23;20233;31
2022/04/02 02:25:48;;;;;;;14.07;11.88;;;1.10;99.90;;;;;;4985495;28;20264;-74
2022/04/02 02:28:16;;;;;;;15.63;12.63;;;1.10;99.90;;;;;;4987882;28;20205;-74
2022/04/02 02:30:45;;;;;;;14.52;12.68;;;1.10;99.90;;;;;;4986020;28;20609;-72
2022/04/02 02:35:57;;;;;;;18.90;12.50;;;1.10;99.90;;;;;;4947838;29;20265;-73
2022/04/02 02:38:24;;;;;;;14.95;12.82;;;1.10;99.90;;;;;;4947912;29;20295;-74
2022/04/02 02:40:52;;;;;;;16.60;13.18;;;1.10;99.90;;;;;;4947229;29;20206;-73
2022/04/02 02:43:20;;;;;;;16.48;13.07;;;1.10;99.90;;;;;;4961318;29;20241;-72
2022/04/02 02:45:48;;;;;;;14.50;12.40;;;1.10;99.90;;;;;;4965191;29;20217;-74
2022/04/02 02:48:15;;;;;;;16.33;13.15;;;1.10;99.90;;;;;;4951938;29;20206;-74
2022/04/02 02:50:43;;;;;;;15.55;13.73;;;1.00;99.90;;;;;;4939686;29;20213;-73
2022/04/02 02:53:11;;;;;;;16.30;13.48;;;1.00;99.90;;;;;;4939881;29;20222;-73
2022/04/02 02:55:38;;;;;;;19.50;14.50;;;1.00;99.90;;;;;;4938342;29;20714;-74
2022/04/02 02:58:05;;;;;;;18.00;13.80;;;1.00;99.90;;;;;;4955179;28;20202;-73
2022/04/02 03:00:32;;;;;;;21.02;14.05;;;1.00;99.90;;;;;;4964116;28;20217;-72
2022/04/02 03:03:01;;;;;;;22.52;14.65;;;1.00;99.90;;;;;;4960435;29;20300;-74
2022/04/02 03:05:28;;;;;;;19.90;15.15;;;1.10;99.90;;;;;;4960509;29;20230;-72
2022/04/02 03:07:55;;;;;;;16.88;14.07;;;1.10;99.90;;;;;;4956195;29;20686;-74
2022/04/02 03:10:24;;;;;;;19.60;15.20;;;1.00;99.90;;;;;;4949929;29;20262;-74
2022/04/02 03:12:52;;;;;;;18.80;13.07;;;1.10;99.90;;;;;;4954795;29;20210;-73
2022/04/02 03:15:20;;;;;;;16.30;13.98;;;1.00;99.90;;;;;;4973799;29;20670;-74
2022/04/02 03:17:47;;;;;;;32.05;16.13;;;1.00;99.90;;;;;;4956857;28;20206;-74
2022/04/02 03:20:18;;;;;;;23.42;15.95;;;1.00;99.90;;;;;;4943099;29;20221;-74
2022/04/02 03:22:46;;;;;;;17.67;13.30;;;1.00;99.90;;;;;;4949202;29;20213;-74
2022/04/02 03:25:15;;;;;;;20.10;14.60;;;1.10;99.90;;;;;;4947076;29;20238;-75
2022/04/02 03:27:44;;;;;;;18.67;13.38;;;1.10;99.90;;;;;;4945684;29;20279;-75
2022/04/02 03:30:12;;;;;;;19.13;15.77;;;1.10;99.90;;;;;;4942524;29;20586;-74
2022/04/02 03:32:40;;;;;;;17.55;13.75;;;1.00;99.90;;;;;;4941526;29;20301;-74
2022/04/02 03:35:08;;;;;;;18.90;14.95;;;1.00;99.90;;;;;;4945575;29;20234;-74
2022/04/02 03:37:38;;;;;;;12.10;9.93;;;1.00;99.90;;;;;;4961212;28;20217;-72
2022/04/02 03:40:07;;;;;;;16.70;13.57;;;1.00;99.90;;;;;;4966524;29;20216;-73
2022/04/02 03:42:34;;;;;;;20.73;15.18;;;1.00;99.90;;;;;;4953527;28;20198;-74
2022/04/02 03:45:01;;;;;;;15.48;11.40;;;1.00;99.90;;;;;;4947414;29;20233;-73
2022/04/02 03:47:28;;;;;;;19.17;14.13;;;1.00;99.90;;;;;;4957676;29;20198;-74
2022/04/02 03:49:55;;;;;;;20.63;15.55;;;1.00;99.90;;;;;;4960971;29;20253;-76
2022/04/02 03:52:22;;;;;;;17.98;12.82;;;1.00;99.90;;;;;;4953926;29;20235;-74
2022/04/02 03:54:51;;;;;;;19.42;15.20;;;1.00;99.90;;;;;;4948761;29;20235;-74
2022/04/02 03:57:19;;;;;;;18.95;13.82;;;1.00;99.90;;;;;;4955805;28;20198;-73
2022/04/02 03:59:46;;;;;;;20.55;13.27;;;1.00;99.90;;;;;;4970238;29;20210;-74
2022/04/02 04:02:13;;;;;;;19.25;16.13;;;1.00;99.90;;;;;;4967803;29;20211;-73
2022/04/02 04:04:40;;;;;;;18.83;12.93;;;1.00;99.90;;;;;;4952465;29;20377;-75
2022/04/02 04:07:08;;;;;;;17.98;13.70;;;1.10;99.90;;;;;;4954210;29;20207;-73
2022/04/02 04:09:36;;;;;;;19.85;14.15;;;1.00;99.90;;;;;;4953637;29;20245;-74
2022/04/02 04:12:05;;;;;;;18.27;14.85;;;1.00;99.90;;;;;;4940594;29;20305;-73
2022/04/02 04:14:32;;;;;;;17.92;13.65;;;1.00;99.90;;;;;;4943996;29;20223;-73
2022/04/02 04:16:59;;;;;;;18.27;14.60;;;1.00;99.90;;;;;;4955016;29;20206;-72
2022/04/02 04:19:26;;;;;;;20.40;14.90;;;1.00;99.90;;;;;;4963253;28;20206;-72
2022/04/02 04:21:53;;;;;;;22.40;16.13;;;1.00;99.90;;;;;;4967521;28;20217;-73
2022/04/02 04:24:20;;;;;;;16.92;13.95;;;0.90;99.90;;;;;;4969076;29;20288;-73
2022/04/02 04:26:47;;;;;;;17.63;13.63;;;0.90;99.90;;;;;;4966419;29;20210;-73
2022/04/02 04:29:16;;;;;;;19.83;14.57;;;1.00;99.90;;;;;;4967772;29;20245;-72
2022/04/02 04:31:42;;;;;;;20.17;14.57;;;0.90;99.90;;;;;;4963223;29;20298;-72
2022/04/02 04:34:09;;;;;;;18.83;13.93;;;0.90;99.90;;;;;;4948530;29;20253;-72
2022/04/02 04:36:37;;;;;;;17.50;13.15;;;0.90;99.90;;;;;;4950872;29;20245;-73
2022/04/02 04:39:05;;;;;;;18.90;14.45;;;0.90;99.90;;;;;;4950409;29;20213;-76
2022/04/02 04:41:32;;;;;;;15.85;12.30;;;1.00;99.90;;;;;;4951224;29;20218;-73
2022/04/02 04:43:59;;;;;;;13.68;10.55;;;0.90;99.90;;;;;;4971041;29;20297;-74
2022/04/02 04:46:28;;;;;;;19.45;14.25;;;0.80;99.90;;;;;;4971694;29;20572;-73
2022/04/02 04:48:55;;;;;;;19.42;14.75;;;0.80;99.90;;;;;;4972050;29;20202;-72
2022/04/02 04:51:23;;;;;;;21.92;14.30;;;0.80;99.90;;;;;;4957499;29;20282;-72
2022/04/02 04:53:50;;;;;;;16.15;13.18;;;0.90;99.90;;;;;;4951420;29;20230;-73
2022/04/02 04:56:17;;;;;;;16.80;13.02;;;0.80;99.90;;;;;;4939169;29;20633;-73
2022/04/02 04:58:44;;;;;;;16.88;12.15;;;0.80;99.90;;;;;;4938589;29;20255;-73
2022/04/02 05:01:12;;;;;;;18.60;14.75;;;0.80;99.90;;;;;;4949594;29;20253;-72
2022/04/02 05:03:40;;;;;;;19.80;14.15;;;0.80;99.90;;;;;;4957887;28;20236;-73
2022/04/02 05:06:10;;;;;;;18.83;14.55;;;0.80;99.90;;;;;;4957593;28;20293;-72
2022/04/02 05:08:37;;;;;;;17.45;12.95;;;0.80;99.90;;;;;;4958059;28;20205;-73
2022/04/02 05:11:04;;;;;;;16.67;13.15;;;0.80;99.90;;;;;;4948028;29;20226;-72
2022/04/02 05:13:31;;;;;;;15.93;12.80;;;0.80;99.90;;;;;;4938601;29;20214;-73
2022/04/02 05:15:58;;;;;;;17.65;12.35;;;0.80;99.90;;;;;;4947980;29;20242;-73
2022/04/02 05:18:25;;;;;;;19.70;13.52;;;0.80;99.90;;;;;;4958019;28;20212;-73
2022/04/02 05:20:54;;;;;;;19.15;13.65;;;0.80;99.90;;;;;;4957641;28;20651;-73
2022/04/02 05:23:21;;;;;;;16.45;12.30;;;0.80;99.90;;;;;;4960379;29;20242;-71
2022/04/02 05:25:48;;;;;;;18.27;13.73;;;0.80;99.90;;;;;;4952467;28;20206;-73
2022/04/02 05:28:15;;;;;;;17.52;13.35;;;0.80;99.90;;;;;;4943673;29;20301;-72
2022/04/02 05:30:42;;;;;;;16.63;12.32;;;0.70;99.90;;;;;;4948763;29;20227;-72
2022/04/02 05:33:09;;;;;;;20.83;13.52;;;0.70;99.90;;;;;;4945818;29;20218;-72
2022/04/02 05:35:36;;;;;;;19.35;13.68;;;0.70;99.90;;;;;;4946629;29;20219;-72
2022/04/02 05:38:05;;;;;;;15.20;12.40;;;0.70;99.90;;;;;;4949299;29;20218;-73
2022/04/02 05:40:31;;;;;;;17.65;13.02;;;0.80;99.90;;;;;;4952301;29;20246;-74
2022/04/02 05:42:59;;;;;;;15.13;11.73;;;0.80;99.90;;;;;;4970087;29;20217;-72
2022/04/02 05:45:26;;;;;;;21.33;15.15;;;0.70;99.90;;;;;;4967895;29;20230;-72
2022/04/02 05:47:53;;;;;;;14.63;12.00;;;0.80;99.90;;;;;;4967192;28;20214;-72
2022/04/02 05:50:23;;;;;;;19.48;14.40;;;0.80;99.90;;;;;;4962309;29;20222;-71
2022/04/02 05:52:51;;;;;;;18.95;13.65;;;0.80;99.90;;;;;;4950786;29;20202;-71
2022/04/02 05:55:20;;;;;;;16.45;12.75;;;0.80;99.90;;;;;;4956470;29;20241;-72
2022/04/02 05:57:47;;;;;;;18.50;13.88;;;0.80;99.90;;;;;;4965885;28;20216;-73
2022/04/02 06:00:17;;;;;;;18.27;14.40;;;0.80;99.90;;;;;;4962670;29;20201;-73
2022/04/02 06:02:45;;;;;;;20.95;13.80;;;0.80;99.90;;;;;;4964790;29;20213;-74
2022/04/02 06:05:15;;;;;;;16.25;12.75;;;0.80;99.90;;;;;;4961574;28;20230;-72
2022/04/02 06:07:42;;;;;;;16.85;11.48;;;0.80;99.90;;;;;;4945562;29;20208;-73
2022/04/02 06:10:10;;;;;;;15.82;11.70;;;0.80;99.90;;;;;;4945115;29;20227;-72
2022/04/02 06:12:39;;;;;;;16.65;13.45;;;0.80;99.90;;;;;;4947608;29;20214;-73
2022/04/02 06:15:08;;;;;;;16.77;13.35;;;0.80;99.90;;;;;;4948879;29;20258;-73
2022/04/02 06:17:35;;;;;;;17.38;13.48;;;0.80;99.90;;;;;;4968753;28;20209;-73
2022/04/02 06:20:02;;;;;;;16.02;11.95;;;0.80;99.90;;;;;;4961597;29;20235;-73
2022/04/02 06:22:29;;;;;;;17.15;13.02;;;0.90;99.90;;;;;;4955981;28;20257;-73
2022/04/02 06:24:56;;;;;;;14.00;10.63;;;0.90;99.90;;;;;;4956408;28;20277;-74
2022/04/02 06:27:23;;;;;;;15.52;11.63;;;0.90;99.90;;;;;;4939046;29;20210;-73
2022/04/02 06:29:51;;;;;;;13.50;10.88;;;0.90;99.90;;;;;;4937391;29;20230;-73
2022/04/02 06:32:21;;;;;;;10.82;9.35;;;0.90;99.90;;;;;;4937699;29;20249;-72
2022/04/02 06:34:47;;;;;;;10.90;9.75;;;0.90;99.90;;;;;;4938915;29;20258;-71
2022/04/02 06:37:14;;;;;;;11.50;9.52;;;0.90;99.90;;;;;;4956772;29;20214;-71
2022/04/02 06:39:41;;;;;;;15.60;11.00;;;0.90;99.90;;;;;;4956112;29;20212;-74
2022/04/02 06:42:08;;;;;;;16.95;11.75;;;1.00;99.90;;;;;;4957266;29;20697;-72
2022/04/02 06:44:35;;;;;;;11.32;9.45;;;1.00;99.90;;;;;;4958459;28;20309;-72
2022/04/02 06:47:04;;;;;;;9.80;8.38;;;0.90;99.90;;;;;;4948285;29;20206;-72
2022/04/02 06:49:31;;;;;;;11.13;9.52;;;0.90;99.90;;;;;;4945967;29;20273;-72
2022/04/02 06:51:59;;;;;;;12.05;10.73;;;0.90;99.90;;;;;;4945380;29;20256;-72
2022/04/02 06:54:26;;;;;;;13.65;9.93;;;0.90;99.90;;;;;;4939599;29;20245;-72
2022/04/02 06:56:55;;;;;;;12.45;10.60;;;0.90;99.90;;;;;;4954350;29;20213;-72
2022/04/02 06:59:22;;;;;;;14.32;11.43;;;1.00;99.90;;;;;;4958768;29;20248;-72
2022/04/02 07:01:49;;;;;;;12.25;10.43;;;0.90;99.90;;;;;;4968125;29;20288;-72
2022/04/02 07:04:17;;;;;;;15.27;11.40;;;1.00;99.90;;;;;;4966862;29;20328;-74
2022/04/02 07:06:45;;;;;;;13.00;10.95;;;1.10;99.90;;;;;;4964959;28;20238;-71
2022/04/02 07:09:14;;;;;;;9.93;7.88;;;1.10;99.90;;;;;;4967687;29;20237;-73
2022/04/02 07:11:42;;;;;;;10.63;8.68;;;1.00;99.90;;;;;;4967798;29;20241;-72
2022/04/02 07:14:09;;;;;;;14.00;10.20;;;1.00;99.90;;;;;;4966051;29;20249;-71
2022/04/02 07:16:36;;;;;;;10.82;9.65;;;1.00;99.90;;;;;;4964242;29;20205;-73
2022/04/02 07:19:04;;;;;;;10.93;9.30;;;1.10;99.90;;;;;;4965268;28;20231;-73
2022/04/02 07:21:34;;;;;;;9.60;8.55;;;1.10;99.60;;;;;;4954788;29;20198;-72
2022/04/02 07:24:02;;;;;;;9.55;8.55;;;1.10;98.80;;;;;;4944800;28;20311;-72
2022/04/02 07:26:32;;;;;;;11.30;10.10;;;1.20;98.90;;;;;;4940277;28;20259;-72
2022/04/02 07:29:00;;;;;;;10.95;9.63;;;1.20;98.00;;;;;;4942980;29;20682;-71
2022/04/02 07:31:27;;;;;;;10.68;8.75;;;1.30;98.90;;;;;;4942832;28;20226;-73
2022/04/02 07:33:54;;;;;;;10.23;9.18;;;1.30;98.40;;;;;;4944382;29;20677;-72
2022/04/02 07:36:30;;;;;;;12.02;10.20;;;1.30;97.50;;;;;;4944356;29;20226;-74
2022/04/02 07:39:05;;;;;;;10.45;7.78;;;1.30;97.20;;;;;;4944363;29;20297;-72
2022/04/02 07:41:43;;;;;;;12.68;9.65;;;1.30;96.50;;;;;;4942389;29;20194;-72
2022/04/02 07:44:21;;;;;;;13.93;10.75;;;1.30;97.00;;;;;;4943707;29;20237;-72
2022/04/02 07:46:49;;;;;;;13.75;10.85;;;1.40;97.40;;;;;;4946670;29;20190;-73
2022/04/02 07:49:21;;;;;;;11.65;8.85;;;1.50;97.50;;;;;;4945206;29;20206;-71
2022/04/02 07:51:52;;;;;;;9.23;8.15;;;1.40;95.90;;;;;;4942373;29;20230;-74
2022/04/02 07:54:22;;;;;;;10.52;9.10;;;1.50;95.70;;;;;;4943761;29;20699;-72
2022/04/02 07:56:51;;;;;;;11.63;10.25;;;1.50;95.30;;;;;;4946015;29;20202;-73
2022/04/02 07:59:25;;;;;;;12.23;9.60;;;1.60;94.60;;;;;;4949803;29;20206;-72
2022/04/02 08:01:52;;;;;;;11.35;10.02;;;1.60;94.70;;;;;;4964171;29;20206;-71
2022/04/02 08:04:21;;;;;;;12.00;9.15;;;1.50;93.90;;;;;;4968032;29;20591;-72
2022/04/02 08:06:49;;;;;;;13.95;10.57;;;1.50;94.60;;;;;;4967198;29;20256;-72
2022/04/02 08:09:18;;;;;;;12.15;9.95;;;1.50;94.60;;;;;;4968161;28;20206;-72
2022/04/02 08:11:49;;;;;;;12.45;9.77;;;1.40;93.80;;;;;;4970691;29;20265;-72
2022/04/02 08:14:18;;;;;;;11.82;10.63;;;1.40;94.50;;;;;;4967628;28;20241;-73
2022/04/02 08:16:45;;;;;;;16.90;9.32;;;1.50;94.80;;;;;;4966494;29;20214;-72
2022/04/02 08:19:14;;;;;;;10.70;9.60;;;1.80;94.80;;;;;;4966136;28;20233;-73
2022/04/02 08:21:41;;;;;;;11.63;9.52;;;1.60;92.90;;;;;;4966983;28;20245;-71
2022/04/02 08:24:08;;;;;;;12.48;10.07;;;1.60;92.10;;;;;;4982948;23;20240;-75
2022/04/02 08:26:46;;;;;;;11.52;8.82;;;1.70;92.60;;;;;;5000316;28;20212;-76
2022/04/02 08:29:29;;;;;;;10.57;9.48;;;1.80;91.80;;;;;;5005759;28;20243;-74
2022/04/02 08:32:17;;;;;;;10.82;9.13;;;1.70;90.40;;;;;;5006274;28;20282;-73
2022/04/02 08:35:00;;;;;;;10.65;9.57;;;1.70;90.70;;;;;;5010322;28;20295;-73
2022/04/02 08:37:33;;;;;;;14.85;10.30;;;1.70;91.40;;;;;;5014566;28;20209;-75
2022/04/02 08:40:11;;;;;;;10.30;9.30;;;1.70;90.50;;;;;;5006608;28;20241;-74
2022/04/02 08:43:08;;;;;;;13.75;9.60;;;1.60;90.60;;;;;;4991677;28;20219;-75
2022/04/02 08:45:46;;;;;;;10.02;8.75;;;1.60;91.00;;;;;;4999734;28;20578;-73
2022/04/02 08:48:27;;;;;;;12.05;9.60;;;1.70;91.20;;;;;;4989740;28;20624;-75
2022/04/02 08:51:16;;;;;;;9.88;8.98;;;1.80;90.70;;;;;;4992728;28;20224;-74
2022/04/02 08:53:50;;;;;;;8.82;7.93;;;1.90;90.30;;;;;;5002680;28;20227;-74
2022/04/02 08:56:22;;;;;;;8.82;7.85;;;1.80;87.00;;;;;;4996262;28;20205;-73
2022/04/02 08:58:58;;;;;;;10.40;8.93;;;1.70;86.20;;;;;;4986251;28;20219;-73
2022/04/02 09:01:30;;;;;;;12.15;7.30;;;1.80;88.50;;;;;;4990517;28;20217;-77
2022/04/02 09:04:36;;;;;;;10.13;8.90;;;1.70;86.70;;;;;;4993693;28;20205;-77
2022/04/02 09:07:47;;;;;;;9.00;7.38;;;1.70;90.30;;;;;;4976521;28;20229;-76
2022/04/02 09:10:56;;;;;;;9.02;7.60;;;1.80;88.50;;;;;;4960503;29;20190;-78
2022/04/02 09:13:50;;;;;;;9.65;8.15;;;1.90;87.00;;;;;;4971151;29;20293;-77
2022/04/02 09:16:23;;;;;;;10.23;8.30;;;1.90;87.00;;;;;;4971655;28;20216;-76
2022/04/02 09:19:14;;;;;;;9.43;7.90;;;1.80;87.70;;;;;;4972631;28;20257;-76
2022/04/02 09:22:05;;;;;;;9.20;8.05;;;1.70;87.30;;;;;;4982478;28;20209;-75
2022/04/02 09:25:09;;;;;;;9.10;8.20;;;1.80;88.10;;;;;;4991179;28;20332;-76
2022/04/02 09:28:09;;;;;;;8.38;7.25;;;1.80;86.90;;;;;;4971532;28;20210;-74
2022/04/02 09:31:09;;;;;;;15.80;8.93;;;1.80;88.20;;;;;;4981311;28;20189;-73
2022/04/02 09:34:16;;;;;;;10.50;8.15;;;1.80;88.80;;;;;;4991163;28;20189;-75
2022/04/02 09:36:59;;;;;;;8.23;7.35;;;1.70;88.80;;;;;;4978923;28;20272;-74
2022/04/02 09:39:52;;;;;;;10.05;7.35;;;1.70;88.50;;;;;;4988433;28;20223;-74
2022/04/02 09:42:37;;;;;;;8.75;7.32;;;1.70;88.30;;;;;;5014243;28;20208;-75
2022/04/02 09:45:08;;;;;;;7.47;6.30;;;1.60;89.00;;;;;;5012409;28;20228;-74
2022/04/02 09:48:05;;;;;;;10.48;8.05;;;1.70;90.40;;;;;;5014676;28;20279;-77
2022/04/02 09:50:33;;;;;;;9.27;7.20;;;1.70;90.30;;;;;;5002995;28;20199;-78
2022/04/02 09:53:15;;;;;;;7.82;7.03;;;1.70;90.30;;;;;;5009043;28;20209;-78
2022/04/02 09:55:51;;;;;;;10.50;7.88;;;1.70;90.70;;;;;;5002376;28;20327;-76
2022/04/02 09:58:52;;;;;;;7.45;6.75;;;1.60;90.60;;;;;;4985714;28;20417;-78
2022/04/02 10:01:28;;;;;;;9.43;7.30;;;1.70;90.70;;;;;;4981438;28;20204;-76
2022/04/02 10:03:59;;;;;;;6.40;5.63;;;1.60;90.30;;;;;;4991697;28;20244;-78
2022/04/02 10:06:31;;;;;;;7.30;6.40;;;1.80;90.40;;;;;;4998343;28;20192;-77
2022/04/02 10:09:11;;;;;;;7.82;6.00;;;1.90;90.40;;;;;;4989730;28;20209;-77
2022/04/02 10:11:42;;;;;;;8.60;7.30;;;1.90;89.80;;;;;;4998097;28;20225;-76
2022/04/02 10:14:09;;;;;;;7.65;6.75;;;2.00;90.30;;;;;;4989203;28;20252;-78
2022/04/02 10:16:37;;;;;;;6.97;6.07;;;2.00;89.80;;;;;;4989991;28;20216;-78
2022/04/02 10:19:09;;;;;;;7.35;6.28;;;1.90;87.50;;;;;;4982322;28;20197;-79
2022/04/02 10:21:38;;;;;;;9.15;7.32;;;1.90;87.90;;;;;;4982767;28;20269;-77
2022/04/02 10:24:21;;;;;;;9.32;6.80;;;2.00;89.50;;;;;;4983680;28;20314;-77
2022/04/02 10:26:51;;;;;;;6.43;5.70;;;2.00;88.70;;;;;;4986915;28;20212;-77
2022/04/02 10:29:39;;;;;;;7.30;6.03;;;2.00;87.50;;;;;;4982062;28;20688;-76
2022/04/02 10:32:19;;;;;;;10.10;7.55;;;1.90;89.70;;;;;;4968840;28;20272;-76
2022/04/02 10:34:52;;;;;;;9.02;7.13;;;2.00;90.40;;;;;;4983617;28;20291;-75
2022/04/02 10:37:22;;;;;;;7.75;6.53;;;2.00;90.40;;;;;;4986361;28;20276;-77
2022/04/02 10:39:58;;;;;;;8.18;6.72;;;1.90;90.70;;;;;;4976933;28;20268;-76
2022/04/02 10:42:34;;;;;;;9.05;5.95;;;1.70;90.30;;;;;;4968398;28;20240;-78
2022/04/02 10:45:04;;;;;;;7.57;6.75;;;1.80;90.90;;;;;;4999267;28;20287;-76
2022/04/02 10:47:31;;;;;;;7.05;6.32;;;1.90;91.20;;;;;;5003586;28;20236;-77
2022/04/02 10:50:04;;;;;;;7.60;6.45;;;1.90;90.40;;;;;;4984696;28;20216;-77
2022/04/02 10:52:32;;;;;;;10.32;5.13;;;1.90;90.40;;;;;;4986859;28;20243;-77
2022/04/02 10:55:00;;;;;;;7.95;7.15;;;2.00;89.60;;;;;;4988148;28;20235;-77
2022/04/02 10:57:29;;;;;;;8.85;6.80;;;2.00;90.40;;;;;;4987872;28;20216;-77
2022/04/02 11:00:02;;;;;;;7.95;7.05;;;2.00;90.30;;;;;;4990960;28;20267;-77
2022/04/02 11:02:40;;;;;;;9.32;6.82;;;2.10;90.50;;;;;;4988050;28;20216;-76
2022/04/02 11:05:09;;;;;;;7.57;6.78;;;2.20;90.50;;;;;;4990869;28;20289;-78
2022/04/02 11:07:40;;;;;;;6.60;6.00;;;2.20;90.50;;;;;;4999353;28;20212;-80
2022/04/02 11:10:12;;;;;;;7.50;6.53;;;2.10;88.60;;;;;;4990369;28;20242;-76
2022/04/02 11:12:41;;;;;;;6.75;6.05;;;2.00;88.90;;;;;;4996679;28;20592;-78
2022/04/02 11:15:14;;;;;;;6.95;6.10;;;2.00;89.40;;;;;;5008916;28;20224;-78
2022/04/02 11:17:43;;;;;;;8.40;6.80;;;2.00;90.40;;;;;;5007636;28;20632;-78
2022/04/02 11:20:13;;;;;;;8.32;7.47;;;2.00;90.50;;;;;;4989066;28;20276;-77
2022/04/02 11:23:04;;;;;;;7.72;6.85;;;1.90;91.40;;;;;;4991553;28;20245;-79
2022/04/02 11:25:36;;;;;;;11.25;7.15;;;1.80;91.00;;;;;;5003314;28;20231;-76
2022/04/02 11:28:11;;;;;;;9.35;6.30;;;1.80;91.30;;;;;;4998269;28;20252;-78
2022/04/02 11:30:40;;;;;;;6.88;5.85;;;1.80;91.50;;;;;;4995737;28;20205;-77
2022/04/02 11:33:13;;;;;;;8.60;6.32;;;1.80;91.20;;;;;;4997736;28;20224;-77
2022/04/02 11:35:44;;;;;;;10.50;6.70;;;1.70;90.30;;;;;;5006355;28;20248;-77
2022/04/02 11:38:25;;;;;;;8.65;7.72;;;1.60;90.80;;;;;;5012522;28;20197;-78
2022/04/02 11:41:02;;;;;;;6.85;6.15;;;1.70;93.00;;;;;;4987446;28;20224;-78
2022/04/02 11:43:34;;;;;;;9.52;7.50;;;1.80;91.80;;;;;;4993218;28;20205;-79
2022/04/02 11:46:03;;;;;;;6.20;5.10;;;1.80;91.40;;;;;;5006641;28;20235;-78
2022/04/02 11:48:33;;;;;;;9.05;6.15;;;1.90;90.50;;;;;;5006788;28;20208;-77
2022/04/02 11:51:13;;;;;;;10.77;7.75;;;1.90;90.00;;;;;;4987865;28;20205;-78
2022/04/02 11:53:41;;;;;;;13.07;6.97;;;1.50;88.10;;;;;;4989444;28;20428;-77
2022/04/02 11:59:04;;;;;;;10.32;7.60;;;1.50;91.00;;;;;;5122665;27;20512;-75
2022/04/02 12:01:41;;;;;;;11.13;8.48;;;1.60;93.00;;;;;;5117883;28;20220;-77
2022/04/02 12:04:12;;;;;;;12.60;8.48;;;1.70;93.10;;;;;;5118276;28;20223;-79
2022/04/02 12:06:39;;;;;;;10.50;8.27;;;1.70;93.00;;;;;;5109369;28;20252;-79
2022/04/02 12:09:15;;;;;;;11.70;8.10;;;1.70;93.80;;;;;;5110525;28;20556;-74
2022/04/02 12:11:44;;;;;;;9.80;7.88;;;1.70;92.70;;;;;;5105069;28;20201;-78
2022/04/02 12:14:27;;;;;;;10.50;8.93;;;1.60;94.50;;;;;;5110843;28;20279;-79
2022/04/02 12:17:01;;;;;;;12.15;8.32;;;1.80;94.20;;;;;;5120906;28;20203;-77
2022/04/02 12:19:43;;;;;;;11.07;8.35;;;1.90;92.90;;;;;;5118492;28;20247;-78
2022/04/02 12:22:31;;;;;;;10.80;7.93;;;2.10;92.40;;;;;;5112223;28;20653;-78
2022/04/02 12:24:59;;;;;;;10.80;7.18;;;1.90;92.20;;;;;;5115124;28;20224;-75
2022/04/02 12:27:29;;;;;;;10.32;8.32;;;2.00;92.70;;;;;;5122579;28;20582;-79
2022/04/02 12:29:59;;;;;;;10.52;8.40;;;1.90;92.70;;;;;;5116392;28;20209;-75
2022/04/02 12:32:31;;;;;;;7.97;7.13;;;1.80;93.00;;;;;;5120531;28;20264;-74
2022/04/02 12:35:00;;;;;;;11.88;7.80;;;1.70;93.50;;;;;;5123621;28;20205;-77
2022/04/02 12:37:30;;;;;;;10.75;8.82;;;1.70;93.60;;;;;;5113921;28;20228;-76
2022/04/02 12:39:59;;;;;;;11.55;8.60;;;1.70;93.80;;;;;;5113879;28;20185;-75
2022/04/02 12:42:39;;;;;;;11.90;9.10;;;1.60;95.00;;;;;;5120697;28;20216;-75
2022/04/02 12:45:09;;;;;;;9.20;7.20;;;1.80;95.60;;;;;;5128262;28;20212;-74
2022/04/02 12:47:41;;;;;;;14.10;8.50;;;1.70;94.50;;;;;;5106673;28;20216;-79
2022/04/02 12:50:13;;;;;;;13.10;8.45;;;1.70;93.90;;;;;;5099903;28;20205;-78
2022/04/02 12:52:48;;;;;;;11.45;8.90;;;1.70;94.80;;;;;;5117605;28;20221;-77
2022/04/02 12:55:19;;;;;;;10.30;8.60;;;1.90;95.70;;;;;;5106621;28;20608;-77
2022/04/02 12:57:57;;;;;;;12.23;5.93;;;1.90;95.00;;;;;;5115255;28;20221;-78
2022/04/02 13:00:31;;;;;;;11.07;8.32;;;2.00;93.10;;;;;;5098140;28;20205;-80
2022/04/02 13:02:59;;;;;;;10.23;8.20;;;2.00;92.20;;;;;;5096380;28;20205;-78
2022/04/02 13:05:43;;;;;;;10.30;8.73;;;1.90;91.00;;;;;;5100130;28;20252;-79
2022/04/02 13:08:23;;;;;;;11.02;9.18;;;1.80;91.80;;;;;;5108979;28;20243;-79
2022/04/02 13:10:54;;;;;;;11.93;8.88;;;1.90;92.50;;;;;;5082944;28;20213;-79